Linwood, North Carolina
Current Conditions -  °F | °C
As of 7:55 PM on Saturday 22 Nov 2014 (Local Time) from KEXX Reporting Station
Clear Clear  
Wind Chill: 37°   Ceiling: Unl
Heat Index: 37°   Visibility: 10mi
Dew Point: 22°   Wind: 0mph
Humidity: 54%   Direction: NA
Pressure: 30.35"   Gusts: NA
Location:  35.75°N, 80.32°W
Report Text: KEXX 230055Z AUTO 00000KT 10SM CLR 03/M06 A3035 RMK AO2 T00281058
Loading
Personal Weather Stations






























Interactive Weather Map New forecast layout! Learn more

10-Day Weather Forecast

Advertisements
Track Severe Weather on mobile